createdAt,value
2018-01-13T00:00:45.590Z,4.50
2018-01-13T00:03:13.093Z,4.40
2018-01-13T00:05:40.632Z,4.60
2018-01-13T00:08:08.130Z,4.60
2018-01-13T00:10:35.680Z,4.70
2018-01-13T00:13:03.198Z,4.60
2018-01-13T00:15:31.471Z,4.70
2018-01-13T00:17:59.731Z,4.60
2018-01-13T00:20:27.245Z,4.60
2018-01-13T00:22:54.746Z,4.80
2018-01-13T00:25:22.279Z,4.80
2018-01-13T00:27:49.853Z,5.00
2018-01-13T00:30:17.383Z,4.90
2018-01-13T00:32:44.887Z,4.80
2018-01-13T00:35:12.385Z,4.80
2018-01-13T00:37:39.913Z,4.80
2018-01-13T00:40:08.195Z,4.70
2018-01-13T00:42:36.470Z,4.70
2018-01-13T00:45:04.742Z,4.80
2018-01-13T00:47:33.044Z,4.90
2018-01-13T00:50:00.554Z,4.90
2018-01-13T00:52:28.066Z,5.00
2018-01-13T00:54:55.596Z,5.00
2018-01-13T00:57:23.880Z,5.00
2018-01-13T00:59:52.159Z,4.80
2018-01-13T01:02:20.441Z,4.90
2018-01-13T01:04:47.933Z,4.90
2018-01-13T01:07:15.429Z,4.60
2018-01-13T01:09:42.959Z,4.50
2018-01-13T01:12:10.458Z,4.30
2018-01-13T01:14:38.727Z,4.30
2018-01-13T01:17:07.012Z,4.50
2018-01-13T01:19:35.273Z,4.70
2018-01-13T01:22:02.778Z,4.70
2018-01-13T01:24:30.314Z,4.80
2018-01-13T01:26:57.832Z,4.80
2018-01-13T01:29:25.346Z,4.90
2018-01-13T01:31:52.869Z,5.00
2018-01-13T01:34:21.144Z,5.20
2018-01-13T01:36:48.655Z,5.20
2018-01-13T01:39:16.188Z,5.10
2018-01-13T01:41:43.696Z,4.80
2018-01-13T01:44:11.207Z,4.80
2018-01-13T01:46:38.743Z,4.80
2018-01-13T01:49:07.028Z,4.80
2018-01-13T01:51:35.288Z,4.80
2018-01-13T01:54:02.815Z,4.70
2018-01-13T01:56:30.318Z,4.80
2018-01-13T01:58:58.577Z,4.80
2018-01-13T02:01:26.116Z,4.70
2018-01-13T02:03:53.617Z,4.80
2018-01-13T02:06:21.127Z,5.10
2018-01-13T02:08:48.681Z,5.20
2018-01-13T02:11:16.173Z,5.10
2018-01-13T02:13:44.441Z,5.40
2018-01-13T02:16:11.971Z,5.40
2018-01-13T02:18:39.479Z,5.30
2018-01-13T02:21:07.760Z,5.40
2018-01-13T02:23:36.057Z,5.50
2018-01-13T02:26:03.546Z,5.50
2018-01-13T02:28:31.071Z,5.50
2018-01-13T02:30:58.568Z,5.50
2018-01-13T02:33:26.120Z,5.40
2018-01-13T02:35:53.617Z,5.50
2018-01-13T02:38:21.891Z,5.30
2018-01-13T02:40:50.195Z,5.40
2018-01-13T02:43:17.696Z,5.40
2018-01-13T02:45:45.192Z,5.50
2018-01-13T02:48:13.479Z,5.40
2018-01-13T02:50:40.973Z,5.30
2018-01-13T02:53:08.508Z,5.40
2018-01-13T02:55:35.996Z,5.40
2018-01-13T02:58:03.522Z,5.40
2018-01-13T03:00:31.030Z,5.40
2018-01-13T03:02:58.542Z,5.40
2018-01-13T03:05:26.038Z,5.40
2018-01-13T03:07:53.562Z,5.40
2018-01-13T03:10:21.082Z,5.50
2018-01-13T03:12:49.374Z,5.40
2018-01-13T03:15:17.652Z,5.40
2018-01-13T03:17:45.183Z,5.40
2018-01-13T03:20:13.453Z,5.50
2018-01-13T03:22:40.983Z,5.40
2018-01-13T03:25:08.496Z,5.50
2018-01-13T03:27:36.788Z,5.30
2018-01-13T03:30:04.286Z,5.30
2018-01-13T03:32:31.831Z,5.30
2018-01-13T03:34:59.329Z,5.40
2018-01-13T03:37:27.602Z,5.50
2018-01-13T03:39:55.127Z,5.50
2018-01-13T03:42:23.399Z,5.50
2018-01-13T03:44:50.908Z,5.50
2018-01-13T03:47:19.187Z,5.60
2018-01-13T03:49:47.475Z,5.50
2018-01-13T03:52:14.978Z,5.50
2018-01-13T03:54:42.489Z,5.60
2018-01-13T03:57:09.999Z,5.70
2018-01-13T03:59:37.513Z,5.50
2018-01-13T04:02:05.009Z,5.40
2018-01-13T04:04:33.289Z,5.30
2018-01-13T04:07:00.785Z,5.20
2018-01-13T04:09:29.066Z,5.30
2018-01-13T04:11:57.339Z,5.40
2018-01-13T04:14:25.617Z,5.50
2018-01-13T04:16:53.896Z,5.60
2018-01-13T04:19:22.182Z,5.50
2018-01-13T04:21:49.692Z,5.40
2018-01-13T04:24:17.223Z,5.50
2018-01-13T04:26:44.735Z,5.50
2018-01-13T04:29:13.006Z,5.40
2018-01-13T04:31:40.522Z,5.40
2018-01-13T04:34:08.017Z,5.40
2018-01-13T04:36:35.528Z,5.30
2018-01-13T04:39:03.039Z,5.30
2018-01-13T04:41:31.314Z,5.40
2018-01-13T04:43:58.835Z,5.30
2018-01-13T04:46:26.356Z,5.30
2018-01-13T04:48:53.863Z,5.30
2018-01-13T04:51:22.520Z,5.30
2018-01-13T04:53:50.043Z,5.30
2018-01-13T04:56:18.320Z,5.20
2018-01-13T04:58:46.585Z,5.20
2018-01-13T05:01:14.879Z,5.20
2018-01-13T05:03:43.140Z,4.90
2018-01-13T05:06:10.649Z,4.90
2018-01-13T05:08:38.168Z,4.90
2018-01-13T05:11:06.441Z,4.90
2018-01-13T05:13:34.705Z,4.80
2018-01-13T05:16:02.207Z,4.80
2018-01-13T05:18:29.735Z,4.60
2018-01-13T05:20:58.006Z,4.50
2018-01-13T05:23:26.299Z,4.60
2018-01-13T05:25:53.789Z,4.60
2018-01-13T05:28:21.311Z,4.50
2018-01-13T05:30:48.824Z,4.30
2018-01-13T05:33:16.359Z,4.30
2018-01-13T05:35:43.992Z,4.10
2018-01-13T05:38:11.511Z,4.10
2018-01-13T05:40:39.020Z,4.20
2018-01-13T05:43:06.552Z,4.30
2018-01-13T05:45:34.809Z,4.30
2018-01-13T05:48:02.313Z,4.30
2018-01-13T05:50:29.814Z,4.40
2018-01-13T05:52:57.335Z,4.20
2018-01-13T05:55:24.825Z,4.10
2018-01-13T05:57:53.107Z,4.30
2018-01-13T06:00:20.615Z,4.20
2018-01-13T06:02:48.143Z,4.30
2018-01-13T06:05:15.638Z,4.30
2018-01-13T06:07:43.132Z,4.30
2018-01-13T06:10:10.641Z,4.20
2018-01-13T06:12:38.151Z,4.20
2018-01-13T06:15:05.677Z,4.10
2018-01-13T06:17:33.192Z,4.00
2018-01-13T06:20:01.473Z,3.90
2018-01-13T06:22:29.752Z,4.00
2018-01-13T06:24:58.035Z,4.00
2018-01-13T06:27:26.293Z,4.10
2018-01-13T06:29:53.802Z,4.00
2018-01-13T06:32:21.307Z,4.10
2018-01-13T06:34:48.917Z,4.20
2018-01-13T06:37:16.404Z,4.30
2018-01-13T06:39:43.923Z,4.20
2018-01-13T06:42:11.432Z,4.00
2018-01-13T06:44:38.936Z,4.00
2018-01-13T06:47:06.452Z,4.10
2018-01-13T06:49:33.979Z,4.20
2018-01-13T06:52:01.478Z,4.30
2018-01-13T06:54:29.736Z,4.10
2018-01-13T06:56:57.259Z,4.10
2018-01-13T06:59:24.758Z,4.00
2018-01-13T07:01:52.265Z,4.10
2018-01-13T07:04:19.775Z,4.10
2018-01-13T07:06:47.291Z,4.10
2018-01-13T07:09:14.955Z,4.10
2018-01-13T07:11:42.584Z,3.90
2018-01-13T07:14:10.838Z,3.90
2018-01-13T07:16:38.345Z,3.90
2018-01-13T07:19:05.837Z,3.80
2018-01-13T07:21:33.355Z,4.10
2018-01-13T07:24:00.843Z,4.20
2018-01-13T07:26:29.134Z,4.10
2018-01-13T07:28:56.639Z,4.00
2018-01-13T07:31:24.145Z,4.10
2018-01-13T07:33:51.655Z,4.30
2018-01-13T07:36:19.156Z,4.50
2018-01-13T07:38:46.668Z,4.30
2018-01-13T07:41:14.177Z,4.30
2018-01-13T07:43:41.666Z,4.10
2018-01-13T07:46:09.930Z,4.50
2018-01-13T07:48:37.451Z,4.50
2018-01-13T07:51:04.976Z,4.60
2018-01-13T07:53:32.515Z,4.60
2018-01-13T07:56:00.778Z,4.40
2018-01-13T07:58:28.300Z,4.30
2018-01-13T08:00:55.798Z,4.40
2018-01-13T08:03:23.304Z,4.40
2018-01-13T08:05:50.797Z,4.40
2018-01-13T08:08:18.318Z,4.30
2018-01-13T08:10:45.824Z,4.40
2018-01-13T08:13:13.347Z,4.40
2018-01-13T08:15:40.850Z,4.40
2018-01-13T08:18:08.354Z,4.30
2018-01-13T08:20:35.875Z,4.20
2018-01-13T08:23:04.150Z,4.60
2018-01-13T08:25:32.423Z,4.60
2018-01-13T08:28:00.750Z,4.70
2018-01-13T08:30:28.241Z,4.70
2018-01-13T08:32:55.746Z,4.80
2018-01-13T08:35:23.252Z,5.00
2018-01-13T08:37:50.750Z,5.10
2018-01-13T08:40:18.299Z,5.00
2018-01-13T08:42:46.552Z,4.90
2018-01-13T08:45:14.067Z,4.80
2018-01-13T08:47:41.561Z,4.90
2018-01-13T08:50:09.083Z,5.00
2018-01-13T08:52:36.585Z,5.20
2018-01-13T08:55:04.085Z,5.30
2018-01-13T08:57:32.344Z,5.30
2018-01-13T09:00:00.620Z,5.30
2018-01-13T09:02:28.908Z,5.40
2018-01-13T09:04:56.440Z,5.40
2018-01-13T09:07:23.928Z,5.40
2018-01-13T09:09:51.449Z,5.50
2018-01-13T09:12:18.960Z,5.50
2018-01-13T09:14:46.468Z,5.60
2018-01-13T09:17:13.986Z,5.60
2018-01-13T09:19:41.501Z,5.80
2018-01-13T09:22:09.800Z,5.90
2018-01-13T09:24:37.289Z,5.90
2018-01-13T09:27:04.803Z,6.00
2018-01-13T09:29:33.056Z,6.10
2018-01-13T09:32:00.583Z,6.10
2018-01-13T09:34:28.100Z,6.10
2018-01-13T09:36:56.373Z,6.20
2018-01-13T09:39:24.651Z,6.10
2018-01-13T09:41:52.930Z,6.00
2018-01-13T09:44:21.180Z,5.90
2018-01-13T09:46:48.705Z,5.80
2018-01-13T09:49:16.226Z,5.80
2018-01-13T09:51:44.520Z,5.90
2018-01-13T09:54:12.032Z,5.80
2018-01-13T09:56:39.545Z,5.90
2018-01-13T09:59:07.047Z,6.00
2018-01-13T10:01:34.574Z,5.90
2018-01-13T10:04:02.088Z,5.90
2018-01-13T10:06:30.388Z,5.90
2018-01-13T10:08:57.890Z,5.90
2018-01-13T10:11:25.389Z,6.00
2018-01-13T10:13:52.902Z,6.00
2018-01-13T10:16:20.423Z,5.90
2018-01-13T10:18:47.941Z,6.00
2018-01-13T10:21:15.424Z,5.90
2018-01-13T10:23:43.793Z,5.90
2018-01-13T10:26:12.049Z,5.90
2018-01-13T10:28:39.565Z,5.90
2018-01-13T10:31:07.057Z,6.00
2018-01-13T10:33:34.568Z,6.00
2018-01-13T10:36:02.061Z,6.00
2018-01-13T10:38:29.589Z,6.00
2018-01-13T10:40:57.124Z,6.00
2018-01-13T10:43:24.640Z,6.10
2018-01-13T10:45:52.136Z,6.10
2018-01-13T10:48:19.668Z,6.30
2018-01-13T10:50:47.175Z,6.40
2018-01-13T10:53:14.689Z,6.60
2018-01-13T10:55:42.976Z,6.70
2018-01-13T10:58:11.256Z,6.60
2018-01-13T11:00:39.549Z,6.70
2018-01-13T11:03:07.052Z,6.70
2018-01-13T11:05:34.574Z,6.70
2018-01-13T11:08:02.069Z,6.70
2018-01-13T11:10:29.595Z,6.80
2018-01-13T11:12:57.101Z,6.70
2018-01-13T11:15:24.609Z,6.60
2018-01-13T11:17:52.122Z,6.60
2018-01-13T11:20:20.412Z,6.70
2018-01-13T11:22:48.687Z,6.70
2018-01-13T11:25:16.971Z,6.70
2018-01-13T11:27:45.229Z,6.70
2018-01-13T11:30:12.741Z,6.70
2018-01-13T11:32:40.247Z,6.60
2018-01-13T11:35:08.539Z,6.60
2018-01-13T11:37:36.814Z,6.70
2018-01-13T11:40:05.110Z,6.70
2018-01-13T11:42:32.628Z,6.70
2018-01-13T11:45:00.150Z,6.70
2018-01-13T11:47:27.646Z,6.60
2018-01-13T11:49:55.150Z,6.50
2018-01-13T11:52:22.684Z,6.50
2018-01-13T11:54:50.956Z,6.40
2018-01-13T11:57:19.247Z,6.40
2018-01-13T11:59:46.772Z,6.40
2018-01-13T12:02:14.308Z,6.40
2018-01-13T12:04:41.819Z,6.40
2018-01-13T12:07:09.339Z,6.40
2018-01-13T12:09:36.846Z,6.50
2018-01-13T12:12:04.356Z,6.60
2018-01-13T12:14:31.865Z,6.60
2018-01-13T12:16:59.391Z,6.70
2018-01-13T12:19:27.663Z,6.60
2018-01-13T12:21:55.964Z,6.70
2018-01-13T12:24:23.480Z,6.70
2018-01-13T12:26:51.005Z,6.60
2018-01-13T12:29:18.525Z,6.70
2018-01-13T12:31:46.818Z,6.90
2018-01-13T12:34:14.326Z,6.90
2018-01-13T12:36:41.817Z,7.00
2018-01-13T12:39:10.111Z,6.90
2018-01-13T12:41:37.635Z,6.90
2018-01-13T12:44:05.152Z,6.80
2018-01-13T12:46:32.664Z,6.70
2018-01-13T12:49:00.963Z,6.70
2018-01-13T12:51:28.476Z,6.60
2018-01-13T12:53:56.061Z,6.70
2018-01-13T12:56:23.526Z,6.80
2018-01-13T12:58:51.046Z,6.80
2018-01-13T13:01:18.560Z,6.70
2018-01-13T13:03:46.089Z,6.60
2018-01-13T13:06:14.354Z,6.60
2018-01-13T13:08:41.861Z,6.60
2018-01-13T13:11:09.353Z,6.50
2018-01-13T13:13:36.877Z,6.60
2018-01-13T13:16:04.369Z,6.80
2018-01-13T13:18:31.870Z,6.80
2018-01-13T13:21:00.150Z,6.70
2018-01-13T13:23:27.671Z,6.70
2018-01-13T13:25:55.183Z,6.70
2018-01-13T13:28:22.686Z,6.50
2018-01-13T13:30:50.198Z,6.60
2018-01-13T13:33:17.703Z,6.60
2018-01-13T13:35:45.233Z,6.50
2018-01-13T13:38:12.729Z,6.40
2018-01-13T13:40:40.245Z,6.40
2018-01-13T13:43:07.742Z,6.30
2018-01-13T13:45:35.253Z,6.20
2018-01-13T13:48:02.789Z,6.20
2018-01-13T13:50:31.076Z,6.30
2018-01-13T13:52:58.581Z,6.30
2018-01-13T13:55:26.104Z,6.10
2018-01-13T13:57:53.611Z,6.10
2018-01-13T14:00:21.140Z,6.10
2018-01-13T14:02:48.642Z,6.00
2018-01-13T14:05:16.952Z,6.10
2018-01-13T14:07:44.440Z,6.10
2018-01-13T14:10:11.936Z,6.20
2018-01-13T14:12:40.213Z,6.40
2018-01-13T14:15:08.496Z,6.40
2018-01-13T14:17:36.005Z,6.30
2018-01-13T14:20:03.507Z,6.20
2018-01-13T14:22:31.795Z,6.10
2018-01-13T14:24:59.294Z,6.10
2018-01-13T14:27:26.824Z,6.10
2018-01-13T14:29:54.322Z,6.00
2018-01-13T14:32:21.843Z,6.00
2018-01-13T14:34:49.333Z,5.90
2018-01-13T14:37:16.862Z,5.90
2018-01-13T14:39:44.409Z,5.90
2018-01-13T14:42:11.909Z,5.70
2018-01-13T14:44:39.492Z,5.60
2018-01-13T14:47:06.997Z,5.60
2018-01-13T14:49:34.512Z,5.60
2018-01-13T14:52:02.025Z,5.50
2018-01-13T14:54:29.522Z,5.50
2018-01-13T14:56:57.032Z,5.50
2018-01-13T14:59:24.545Z,5.60
2018-01-13T15:01:52.036Z,5.50
2018-01-13T15:04:19.565Z,5.50
2018-01-13T15:06:47.840Z,5.40
2018-01-13T15:09:16.156Z,5.50
2018-01-13T15:11:43.663Z,5.50
2018-01-13T15:14:11.183Z,5.50
2018-01-13T15:16:38.689Z,5.40
2018-01-13T15:19:06.216Z,5.40
2018-01-13T15:21:33.709Z,5.30
2018-01-13T15:24:02.035Z,5.40
2018-01-13T15:26:29.516Z,5.40
2018-01-13T15:28:57.022Z,5.30
2018-01-13T15:31:24.533Z,5.30
2018-01-13T15:33:52.051Z,5.30
2018-01-13T15:36:19.546Z,5.20
2018-01-13T15:38:47.062Z,5.30
2018-01-13T15:41:14.549Z,5.30
2018-01-13T15:43:42.069Z,5.30
2018-01-13T15:46:09.552Z,5.30
2018-01-13T15:48:37.054Z,5.40
2018-01-13T15:51:04.570Z,5.50
2018-01-13T15:53:32.084Z,5.50
2018-01-13T15:56:00.363Z,5.40
2018-01-13T15:58:28.652Z,5.50
2018-01-13T16:00:56.167Z,5.40
2018-01-13T16:03:23.670Z,5.60
2018-01-13T16:05:51.177Z,5.60
2018-01-13T16:08:18.674Z,5.60
2018-01-13T16:10:46.948Z,5.60
2018-01-13T16:13:15.214Z,5.70
2018-01-13T16:15:43.498Z,5.70
2018-01-13T16:18:11.761Z,5.70
2018-01-13T16:20:40.063Z,5.70
2018-01-13T16:23:07.561Z,5.70
2018-01-13T16:25:35.069Z,5.80
2018-01-13T16:28:03.338Z,5.80
2018-01-13T16:30:31.632Z,5.70
2018-01-13T16:32:59.144Z,5.70
2018-01-13T16:35:26.696Z,5.70
2018-01-13T16:37:54.204Z,5.60
2018-01-13T16:40:21.698Z,5.40
2018-01-13T16:42:49.214Z,5.40
2018-01-13T16:45:17.470Z,5.40
2018-01-13T16:47:44.991Z,5.30
2018-01-13T16:50:12.484Z,5.40
2018-01-13T16:52:40.013Z,5.20
2018-01-13T16:55:07.519Z,5.20
2018-01-13T16:57:35.788Z,5.40
2018-01-13T17:00:03.314Z,5.30
2018-01-13T17:02:30.827Z,5.30
2018-01-13T17:04:59.094Z,5.10
2018-01-13T17:07:27.366Z,5.20
2018-01-13T17:09:55.625Z,5.20
2018-01-13T17:12:23.137Z,5.10
2018-01-13T17:14:50.620Z,5.10
2018-01-13T17:17:18.148Z,5.10
2018-01-13T17:19:45.654Z,5.10
2018-01-13T17:22:13.187Z,5.10
2018-01-13T17:24:40.673Z,5.10
2018-01-13T17:27:08.186Z,5.10
2018-01-13T17:29:35.693Z,5.20
2018-01-13T17:32:03.199Z,5.20
2018-01-13T17:34:30.704Z,5.30
2018-01-13T17:36:58.208Z,5.30
2018-01-13T17:39:25.714Z,5.20
2018-01-13T17:41:53.211Z,5.10
2018-01-13T17:44:20.726Z,5.10
2018-01-13T17:46:48.218Z,5.10
2018-01-13T17:49:16.506Z,5.00
2018-01-13T17:51:44.002Z,5.00
2018-01-13T17:54:11.539Z,4.90
2018-01-13T17:56:39.051Z,4.80
2018-01-13T17:59:06.555Z,4.90
2018-01-13T18:01:34.045Z,4.90
2018-01-13T18:04:01.563Z,4.90
2018-01-13T18:06:29.071Z,4.90
2018-01-13T18:08:56.641Z,4.90
2018-01-13T18:11:24.119Z,4.90
2018-01-13T18:13:52.383Z,4.70
2018-01-13T18:16:19.902Z,4.70
2018-01-13T18:18:47.412Z,4.60
2018-01-13T18:21:15.686Z,4.60
2018-01-13T18:23:43.950Z,4.60
2018-01-13T18:26:11.462Z,4.50
2018-01-13T18:28:38.963Z,4.60
2018-01-13T18:31:06.723Z,4.60
2018-01-13T18:33:34.218Z,4.70
2018-01-13T18:36:01.741Z,4.60
2018-01-13T18:38:29.244Z,4.60
2018-01-13T18:40:56.763Z,4.60
2018-01-13T18:43:24.257Z,4.80
2018-01-13T18:45:51.766Z,4.90
2018-01-13T18:48:19.249Z,4.80
2018-01-13T18:50:47.538Z,4.60
2018-01-13T18:53:15.053Z,4.60
2018-01-13T18:55:42.577Z,4.40
2018-01-13T18:58:10.080Z,4.40
2018-01-13T19:00:37.597Z,4.50
2018-01-13T19:03:05.090Z,4.50
2018-01-13T19:05:32.607Z,4.50
2018-01-13T19:08:00.113Z,4.40
2018-01-13T19:10:27.618Z,4.60
2018-01-13T19:12:55.125Z,4.40
2018-01-13T19:15:22.633Z,4.50
2018-01-13T19:17:50.154Z,4.40
2018-01-13T19:20:18.427Z,4.40
2018-01-13T19:22:45.934Z,4.40
2018-01-13T19:25:13.426Z,4.20
2018-01-13T19:27:40.949Z,4.00
2018-01-13T19:30:08.464Z,4.00
2018-01-13T19:32:36.746Z,4.00
2018-01-13T19:35:05.006Z,4.00
2018-01-13T19:37:32.519Z,4.00
2018-01-13T19:40:00.021Z,4.00
2018-01-13T19:42:28.313Z,4.10
2018-01-13T19:44:56.596Z,4.10
2018-01-13T19:47:24.884Z,4.00
2018-01-13T19:49:52.380Z,4.00
2018-01-13T19:52:19.925Z,4.00
2018-01-13T19:54:47.389Z,4.00
2018-01-13T19:57:14.915Z,4.00
2018-01-13T19:59:42.418Z,4.10
2018-01-13T20:02:09.909Z,4.00
2018-01-13T20:04:37.427Z,4.00
2018-01-13T20:07:04.927Z,4.00
2018-01-13T20:09:33.206Z,4.00
2018-01-13T20:12:01.477Z,3.90
2018-01-13T20:14:28.976Z,3.90
2018-01-13T20:16:56.474Z,4.00
2018-01-13T20:19:23.982Z,4.10
2018-01-13T20:21:51.488Z,4.00
2018-01-13T20:24:18.997Z,4.00
2018-01-13T20:26:46.512Z,4.00
2018-01-13T20:29:14.019Z,4.00
2018-01-13T20:31:41.518Z,3.90
2018-01-13T20:34:09.026Z,3.90
2018-01-13T20:36:36.538Z,3.80
2018-01-13T20:39:04.067Z,3.90
2018-01-13T20:41:31.568Z,4.00
2018-01-13T20:43:59.099Z,4.00
2018-01-13T20:46:26.599Z,4.00
2018-01-13T20:48:54.858Z,4.00
2018-01-13T20:51:22.369Z,4.00
2018-01-13T20:53:49.881Z,4.00
2018-01-13T20:56:17.399Z,4.00
2018-01-13T20:58:44.913Z,4.00
2018-01-13T21:01:12.430Z,3.90
2018-01-13T21:03:40.689Z,3.90
2018-01-13T21:06:08.221Z,3.90
2018-01-13T21:08:35.719Z,3.90
2018-01-13T21:11:03.234Z,3.80
2018-01-13T21:13:30.720Z,3.80
2018-01-13T21:15:58.239Z,3.70
2018-01-13T21:18:26.494Z,3.80
2018-01-13T21:20:54.009Z,3.80
2018-01-13T21:23:21.520Z,3.80
2018-01-13T21:25:49.797Z,3.90
2018-01-13T21:28:18.062Z,3.90
2018-01-13T21:30:45.578Z,3.90
2018-01-13T21:33:13.079Z,3.90
2018-01-13T21:35:40.611Z,4.00
2018-01-13T21:38:08.100Z,4.00
2018-01-13T21:40:35.597Z,4.10
2018-01-13T21:43:03.104Z,4.10
2018-01-13T21:45:30.593Z,4.00
2018-01-13T21:47:58.884Z,4.00
2018-01-13T21:50:26.383Z,4.00
2018-01-13T21:52:53.886Z,4.00
2018-01-13T21:55:21.381Z,4.00
2018-01-13T21:57:48.885Z,4.00
2018-01-13T22:00:17.162Z,4.00
2018-01-13T22:02:45.442Z,4.10
2018-01-13T22:05:13.709Z,4.20
2018-01-13T22:07:41.991Z,4.20
2018-01-13T22:10:10.259Z,4.20
2018-01-13T22:12:37.761Z,4.10
2018-01-13T22:15:05.249Z,4.20
2018-01-13T22:17:32.780Z,4.10
2018-01-13T22:20:00.283Z,4.20
2018-01-13T22:22:27.807Z,4.20
2018-01-13T22:24:55.297Z,4.20
2018-01-13T22:27:22.786Z,4.00
2018-01-13T22:29:51.067Z,3.80
2018-01-13T22:32:18.553Z,3.70
2018-01-13T22:34:46.057Z,3.70
2018-01-13T22:37:13.564Z,3.60
2018-01-13T22:39:41.080Z,3.60
2018-01-13T22:42:09.337Z,3.70
2018-01-13T22:44:36.854Z,3.70
2018-01-13T22:47:04.349Z,3.60
2018-01-13T22:49:31.852Z,3.60
2018-01-13T22:51:59.368Z,3.60
2018-01-13T22:54:26.873Z,3.70
2018-01-13T22:56:54.365Z,3.60
2018-01-13T22:59:21.878Z,3.70
2018-01-13T23:01:50.184Z,3.60
2018-01-13T23:04:17.703Z,3.60
2018-01-13T23:06:45.956Z,3.70
2018-01-13T23:09:13.452Z,3.70
2018-01-13T23:11:40.983Z,3.80
2018-01-13T23:14:08.474Z,3.80
2018-01-13T23:16:35.986Z,3.80
2018-01-13T23:19:03.501Z,3.80
2018-01-13T23:21:31.015Z,3.80
2018-01-13T23:23:58.515Z,3.60
2018-01-13T23:26:26.021Z,3.60
2018-01-13T23:28:53.513Z,3.60
2018-01-13T23:31:21.799Z,3.50
2018-01-13T23:33:49.290Z,3.50
2018-01-13T23:36:16.824Z,3.50
2018-01-13T23:38:44.320Z,3.40
2018-01-13T23:41:11.844Z,3.40
2018-01-13T23:43:39.343Z,3.40
2018-01-13T23:46:06.854Z,3.30
2018-01-13T23:48:34.359Z,3.40
2018-01-13T23:51:01.875Z,3.40
2018-01-13T23:53:29.370Z,3.50
2018-01-13T23:55:57.668Z,3.40
2018-01-13T23:58:25.157Z,3.40
